createdAt,value
2023-05-22T04:03:27.108Z,14.69
2023-05-22T04:07:29.825Z,14.87
2023-05-22T04:11:32.356Z,15.05
2023-05-22T04:15:36.368Z,15.22
2023-05-22T04:19:40.470Z,15.31
2023-05-22T04:23:44.448Z,15.36
2023-05-22T04:27:47.936Z,15.47
2023-05-22T04:31:50.452Z,15.53
2023-05-22T04:35:54.447Z,15.75
2023-05-22T04:39:58.155Z,15.90
2023-05-22T04:44:03.992Z,16.00
2023-05-22T04:48:08.043Z,16.20
2023-05-22T04:52:13.628Z,16.35
2023-05-22T04:56:24.261Z,16.57
2023-05-22T05:00:35.276Z,16.75
2023-05-22T05:04:37.913Z,16.93
2023-05-22T05:08:44.149Z,16.74
2023-05-22T05:12:46.756Z,17.08
2023-05-22T05:16:51.640Z,17.30
2023-05-22T05:20:54.221Z,17.49
2023-05-22T05:24:58.121Z,17.76
2023-05-22T05:29:01.215Z,17.98
2023-05-22T05:33:23.589Z,18.13
2023-05-22T05:37:37.997Z,18.32
2023-05-22T05:41:43.552Z,18.86
2023-05-22T05:45:46.776Z,19.20
2023-05-22T05:49:49.458Z,19.71
2023-05-22T05:53:52.292Z,19.96
2023-05-22T05:57:57.125Z,20.15
2023-05-22T06:02:17.955Z,20.22
2023-05-22T06:06:21.677Z,20.47
2023-05-22T06:10:42.861Z,20.55
2023-05-22T06:14:52.756Z,20.82
2023-05-22T06:18:57.216Z,20.78
2023-05-22T06:23:00.017Z,20.88
2023-05-22T06:27:11.945Z,21.24
2023-05-22T06:31:16.484Z,21.60
2023-05-22T06:35:21.455Z,21.73
2023-05-22T06:39:24.184Z,22.11
2023-05-22T06:43:49.184Z,22.35
2023-05-22T06:47:58.353Z,22.50
2023-05-22T06:52:03.938Z,22.68
2023-05-22T06:56:08.111Z,22.80
2023-05-22T07:00:25.830Z,23.00
2023-05-22T07:04:53.500Z,23.40
2023-05-22T07:09:06.889Z,23.66
2023-05-22T07:13:09.521Z,23.76
2023-05-22T07:17:12.585Z,24.03
2023-05-22T07:21:23.977Z,23.95
2023-05-22T07:25:27.691Z,24.22
2023-05-22T07:29:31.077Z,24.26
2023-05-22T07:33:35.689Z,24.59
2023-05-22T07:37:39.677Z,24.89
2023-05-22T07:41:42.505Z,25.09
2023-05-22T07:45:48.815Z,25.12
2023-05-22T07:49:53.531Z,25.20
2023-05-22T07:58:05.178Z,25.48
2023-05-22T08:02:14.227Z,25.73
2023-05-22T08:06:17.814Z,25.80
2023-05-22T08:10:21.733Z,26.02
2023-05-22T08:14:24.393Z,26.10
2023-05-22T08:18:28.881Z,26.06
2023-05-22T08:22:31.957Z,26.39
2023-05-22T08:26:36.008Z,26.33
2023-05-22T08:30:38.837Z,26.69
2023-05-22T08:34:42.047Z,26.90
2023-05-22T08:38:44.663Z,27.20
2023-05-22T08:42:48.855Z,27.23
2023-05-22T08:46:53.473Z,27.24
2023-05-22T08:50:59.083Z,27.73
2023-05-22T08:55:05.302Z,27.61
2023-05-22T08:59:09.487Z,27.83
2023-05-22T09:03:14.065Z,27.97
2023-05-22T09:07:16.698Z,28.39
2023-05-22T09:11:19.138Z,29.00
2023-05-22T09:15:23.592Z,28.87
2023-05-22T09:19:26.264Z,29.07
2023-05-22T09:23:29.396Z,29.07
2023-05-22T09:27:31.973Z,29.12
2023-05-22T09:31:43.395Z,29.09
2023-05-22T09:35:48.312Z,29.16
2023-05-22T09:39:54.408Z,29.23
2023-05-22T09:43:58.288Z,28.85
2023-05-22T09:48:03.294Z,28.74
2023-05-22T09:52:09.071Z,29.11
2023-05-22T09:56:19.234Z,28.64
2023-05-22T10:00:28.502Z,28.21
2023-05-22T10:04:34.440Z,28.23
2023-05-22T10:08:43.146Z,28.15
2023-05-22T10:12:51.918Z,28.06
2023-05-22T10:16:56.673Z,27.66
2023-05-22T10:21:02.535Z,27.67
2023-05-22T10:25:06.690Z,27.84
2023-05-22T10:29:15.699Z,28.08
2023-05-22T10:33:23.336Z,28.25
2023-05-22T10:37:42.980Z,28.57
2023-05-22T10:41:45.857Z,28.63
2023-05-22T10:45:48.703Z,28.32
2023-05-22T10:50:04.435Z,28.27
2023-05-22T10:54:08.440Z,28.39
2023-05-22T10:58:13.932Z,28.78
2023-05-22T11:02:21.691Z,29.06
2023-05-22T11:06:42.536Z,29.31
2023-05-22T11:10:58.963Z,29.18
2023-05-22T11:15:06.759Z,29.05
2023-05-22T11:19:22.458Z,29.06
2023-05-22T11:23:26.585Z,29.27
2023-05-22T11:27:31.044Z,29.48
2023-05-22T11:31:34.144Z,29.90
2023-05-22T11:35:37.520Z,30.11
2023-05-22T11:39:40.041Z,29.45
2023-05-22T11:43:45.330Z,29.22
2023-05-22T11:47:48.489Z,29.35
2023-05-22T11:51:51.936Z,30.16
2023-05-22T11:55:54.465Z,30.28
2023-05-22T11:59:58.453Z,30.46
2023-05-22T12:04:01.119Z,30.45
2023-05-22T12:08:03.777Z,30.73
2023-05-22T12:12:06.701Z,30.81
2023-05-22T12:16:21.756Z,30.70
2023-05-22T12:20:29.665Z,30.33
2023-05-22T12:24:39.093Z,29.95
2023-05-22T12:28:41.654Z,29.71
2023-05-22T12:32:50.011Z,29.86
2023-05-22T12:36:52.632Z,29.94
2023-05-22T12:40:56.344Z,30.02
2023-05-22T12:45:00.520Z,30.55
2023-05-22T12:49:04.397Z,29.98
2023-05-22T12:53:13.688Z,29.70
2023-05-22T12:57:16.962Z,29.75
2023-05-22T13:01:19.885Z,30.19
2023-05-22T13:05:23.880Z,30.48
2023-05-22T13:09:26.487Z,31.03
2023-05-22T13:13:29.269Z,30.80
2023-05-22T13:17:32.150Z,31.28
2023-05-22T13:21:36.148Z,31.86
2023-05-22T13:25:39.027Z,32.12
2023-05-22T13:29:41.779Z,31.88
2023-05-22T13:33:44.490Z,31.72
2023-05-22T13:37:48.406Z,31.57
2023-05-22T13:41:52.510Z,32.07
2023-05-22T13:45:55.339Z,31.48
2023-05-22T13:49:57.930Z,31.22
2023-05-22T13:54:01.832Z,31.78
2023-05-22T13:58:39.360Z,31.90
2023-05-22T14:02:41.995Z,32.56
2023-05-22T14:06:44.617Z,32.61
2023-05-22T14:10:48.544Z,31.96
2023-05-22T14:14:51.735Z,33.17
2023-05-22T14:18:54.471Z,33.93
2023-05-22T14:22:58.447Z,33.64
2023-05-22T14:27:02.531Z,34.30
2023-05-22T14:31:05.099Z,34.24
2023-05-22T14:35:08.227Z,34.31
2023-05-22T14:39:11.121Z,34.32
2023-05-22T14:43:14.975Z,34.15
2023-05-22T14:47:17.568Z,33.97
2023-05-22T14:51:22.106Z,34.03
2023-05-22T14:55:27.604Z,34.24
2023-05-22T14:59:31.794Z,34.73
2023-05-22T15:03:34.388Z,35.55
2023-05-22T15:11:45.641Z,35.52
2023-05-22T15:15:49.760Z,34.91
2023-05-22T15:19:52.297Z,34.99
2023-05-22T15:23:54.845Z,33.99
2023-05-22T15:27:58.118Z,33.25
2023-05-22T15:32:02.065Z,33.16
2023-05-22T15:36:04.880Z,32.56
2023-05-22T15:40:09.647Z,31.95
2023-05-22T15:44:12.244Z,31.45
2023-05-22T15:48:17.471Z,31.27
2023-05-22T15:52:22.454Z,31.25
2023-05-22T15:56:25.224Z,31.51
2023-05-22T16:00:28.334Z,32.19
2023-05-22T16:04:32.231Z,32.84
2023-05-22T16:08:34.822Z,33.42
2023-05-22T16:12:37.596Z,33.98
2023-05-22T16:16:40.789Z,34.45
2023-05-22T16:20:44.867Z,34.05
2023-05-22T16:24:47.574Z,34.09
2023-05-22T16:28:50.107Z,32.67
2023-05-22T16:32:52.843Z,31.86
2023-05-22T16:36:56.696Z,32.04
2023-05-22T16:40:59.800Z,31.38
2023-05-22T16:45:03.066Z,30.18
2023-05-22T16:49:05.734Z,29.15
2023-05-22T16:53:09.589Z,28.52
2023-05-22T16:57:12.135Z,28.08
2023-05-22T17:01:14.870Z,28.03
2023-05-22T17:05:17.452Z,27.92
2023-05-22T17:09:21.754Z,27.37
2023-05-22T17:13:24.318Z,27.28
2023-05-22T17:17:26.889Z,26.92
2023-05-22T17:21:30.646Z,26.53
2023-05-22T17:25:34.536Z,26.26
2023-05-22T17:29:37.097Z,25.72
2023-05-22T17:33:39.820Z,23.78
2023-05-22T17:37:42.406Z,23.11
2023-05-22T17:41:46.182Z,22.82
2023-05-22T17:45:50.749Z,22.46
2023-05-22T17:49:53.425Z,22.29
2023-05-22T17:53:56.356Z,22.15
2023-05-22T17:58:00.473Z,21.81
2023-05-22T18:02:03.426Z,18.28
2023-05-22T18:06:06.197Z,17.70
2023-05-22T18:10:09.570Z,17.73
2023-05-22T18:14:13.487Z,17.64
2023-05-22T18:18:16.545Z,17.87
2023-05-22T18:22:19.046Z,18.64
2023-05-22T18:26:21.665Z,19.06
2023-05-22T18:30:25.533Z,19.16
2023-05-22T18:34:28.136Z,18.90
2023-05-22T18:38:30.869Z,19.13
2023-05-22T18:42:33.427Z,19.07
2023-05-22T18:46:37.348Z,19.15
2023-05-22T18:50:40.258Z,19.45
2023-05-22T18:54:42.940Z,19.43
2023-05-22T18:58:45.497Z,19.61
2023-05-22T19:02:49.435Z,19.39
2023-05-22T19:06:53.734Z,19.30
2023-05-22T19:10:59.753Z,19.09
2023-05-22T19:15:02.934Z,19.26
2023-05-22T19:19:11.132Z,19.34
2023-05-22T19:23:13.845Z,19.59
2023-05-22T19:27:16.445Z,19.76
2023-05-22T19:31:19.036Z,19.75
2023-05-22T19:35:23.106Z,19.46
2023-05-22T19:39:25.983Z,19.27
2023-05-22T19:43:31.128Z,19.42
2023-05-22T19:47:33.699Z,19.00
2023-05-22T19:51:37.784Z,18.86
2023-05-22T19:55:40.568Z,18.78
2023-05-22T19:59:43.111Z,18.86
2023-05-22T20:03:46.581Z,19.07
2023-05-22T20:07:51.556Z,19.05
2023-05-22T20:11:54.115Z,19.18
2023-05-22T20:15:57.281Z,18.64
2023-05-22T20:19:59.829Z,18.33
2023-05-22T20:24:04.842Z,18.26
2023-05-22T20:28:07.477Z,18.30
2023-05-22T20:32:10.006Z,19.80
2023-05-22T20:36:14.884Z,19.09
2023-05-22T20:40:18.805Z,19.04
2023-05-22T20:44:24.603Z,18.78
2023-05-22T20:48:27.245Z,18.62
2023-05-22T20:52:30.560Z,18.20
2023-05-22T20:56:34.419Z,17.99
